createdAt,value
2023-05-16T00:00:46.516Z,5.13
2023-05-16T00:03:13.349Z,4.28
2023-05-16T00:05:40.260Z,5.35
2023-05-16T00:08:06.836Z,3.28
2023-05-16T00:10:38.201Z,5.65
2023-05-16T00:13:07.149Z,3.35
2023-05-16T00:15:34.026Z,3.72
2023-05-16T00:18:02.717Z,4.57
2023-05-16T00:20:30.456Z,4.30
2023-05-16T00:23:01.171Z,5.03
2023-05-16T00:25:28.761Z,4.82
2023-05-16T00:27:55.541Z,4.88
2023-05-16T00:30:22.830Z,4.10
2023-05-16T00:32:49.659Z,5.50
2023-05-16T00:35:16.332Z,4.47
2023-05-16T00:37:43.993Z,4.55
2023-05-16T00:40:11.023Z,4.78
2023-05-16T00:42:38.880Z,4.65
2023-05-16T00:45:06.935Z,5.65
2023-05-16T00:47:33.988Z,2.97
2023-05-16T00:50:02.773Z,6.70
2023-05-16T00:52:29.846Z,5.07
2023-05-16T00:54:57.567Z,5.95
2023-05-16T00:57:24.870Z,4.55
2023-05-16T00:59:52.144Z,5.47
2023-05-16T01:02:18.863Z,6.65
2023-05-16T01:04:48.394Z,6.10
2023-05-16T01:07:15.260Z,4.82
2023-05-16T01:09:41.927Z,6.88
2023-05-16T01:12:27.392Z,6.60
2023-05-16T01:15:10.612Z,5.15
2023-05-16T01:18:03.668Z,4.85
2023-05-16T01:20:42.838Z,5.72
2023-05-16T01:23:41.566Z,5.32
2023-05-16T01:26:18.995Z,7.35
2023-05-16T01:28:47.280Z,4.07
2023-05-16T01:31:14.280Z,4.40
2023-05-16T01:33:40.910Z,3.55
2023-05-16T01:36:22.641Z,4.75
2023-05-16T01:39:09.444Z,4.82
2023-05-16T01:42:06.199Z,5.93
2023-05-16T01:44:52.566Z,4.55
2023-05-16T01:48:02.866Z,6.03
2023-05-16T01:50:37.744Z,4.25
2023-05-16T01:53:11.415Z,4.28
2023-05-16T01:55:51.522Z,3.72
2023-05-16T01:58:26.320Z,4.15
2023-05-16T02:00:54.416Z,3.97
2023-05-16T02:03:23.860Z,4.43
2023-05-16T02:05:51.482Z,3.83
2023-05-16T02:08:18.244Z,4.50
2023-05-16T02:10:51.644Z,3.75
2023-05-16T02:13:18.515Z,5.07
2023-05-16T02:16:19.515Z,3.40
2023-05-16T02:18:46.780Z,4.22
2023-05-16T02:21:13.447Z,3.78
2023-05-16T02:23:40.063Z,3.72
2023-05-16T02:26:24.924Z,3.13
2023-05-16T02:28:51.535Z,4.45
2023-05-16T02:31:28.529Z,2.92
2023-05-16T02:33:55.326Z,3.80
2023-05-16T02:36:35.962Z,3.90
2023-05-16T02:41:33.322Z,3.67
2023-05-16T02:43:59.910Z,2.78
2023-05-16T02:46:31.746Z,3.03
2023-05-16T02:48:58.539Z,3.60
2023-05-16T02:51:27.368Z,2.15
2023-05-16T02:53:57.074Z,2.60
2023-05-16T02:56:23.825Z,3.00
2023-05-16T02:58:50.665Z,2.58
2023-05-16T03:01:17.753Z,4.95
2023-05-16T03:03:44.668Z,3.92
2023-05-16T03:06:11.519Z,2.92
2023-05-16T03:08:38.329Z,3.85
2023-05-16T03:11:05.648Z,3.67
2023-05-16T03:16:00.767Z,3.80
2023-05-16T03:18:31.937Z,3.95
2023-05-16T03:21:00.156Z,3.13
2023-05-16T03:23:27.343Z,3.35
2023-05-16T03:25:54.346Z,3.97
2023-05-16T03:28:25.354Z,4.30
2023-05-16T03:30:51.997Z,3.65
2023-05-16T03:33:19.219Z,3.30
2023-05-16T03:35:46.825Z,3.15
2023-05-16T03:38:16.040Z,2.45
2023-05-16T03:40:42.770Z,2.22
2023-05-16T03:43:22.289Z,2.72
2023-05-16T03:45:50.152Z,3.20
2023-05-16T03:48:16.881Z,2.92
2023-05-16T03:50:43.576Z,2.10
2023-05-16T03:53:10.497Z,1.88
2023-05-16T03:55:46.829Z,1.88
2023-05-16T03:58:16.524Z,1.83
2023-05-16T04:03:28.550Z,1.45
2023-05-16T04:05:57.897Z,1.30
2023-05-16T04:08:26.570Z,1.67
2023-05-16T04:10:53.518Z,1.38
2023-05-16T04:13:20.303Z,1.30
2023-05-16T04:15:47.096Z,1.52
2023-05-16T04:18:13.980Z,2.05
2023-05-16T04:20:43.027Z,1.25
2023-05-16T04:23:12.043Z,2.15
2023-05-16T04:25:42.475Z,1.30
2023-05-16T04:28:09.338Z,2.33
2023-05-16T04:30:36.262Z,0.85
2023-05-16T04:33:05.556Z,1.48
2023-05-16T04:35:34.224Z,0.80
2023-05-16T04:38:01.160Z,1.30
2023-05-16T04:40:29.549Z,1.30
2023-05-16T04:45:27.885Z,1.33
2023-05-16T04:47:55.000Z,1.13
2023-05-16T04:50:24.456Z,1.85
2023-05-16T04:52:51.272Z,0.82
2023-05-16T04:55:18.065Z,1.25
2023-05-16T04:57:44.772Z,1.08
2023-05-16T05:00:13.460Z,1.60
2023-05-16T05:02:44.854Z,1.40
2023-05-16T05:05:11.710Z,1.35
2023-05-16T05:07:39.497Z,1.60
2023-05-16T05:10:07.884Z,1.67
2023-05-16T05:15:03.748Z,1.02
2023-05-16T05:17:30.852Z,1.38
2023-05-16T05:20:00.005Z,1.17
2023-05-16T05:22:29.241Z,1.45
2023-05-16T05:24:55.945Z,1.67
2023-05-16T05:27:22.560Z,1.77
2023-05-16T05:29:49.159Z,1.67
2023-05-16T05:32:15.928Z,1.70
2023-05-16T05:34:44.654Z,0.85
2023-05-16T05:37:12.286Z,1.17
2023-05-16T05:39:40.383Z,2.08
2023-05-16T05:42:09.117Z,2.63
2023-05-16T05:44:38.050Z,1.08
2023-05-16T05:47:07.067Z,1.98
2023-05-16T05:49:36.032Z,1.70
2023-05-16T05:52:02.816Z,1.73
2023-05-16T05:54:30.390Z,1.50
2023-05-16T05:56:59.409Z,1.33
2023-05-16T05:59:29.519Z,1.42
2023-05-16T06:01:58.064Z,1.67
2023-05-16T06:04:25.152Z,1.17
2023-05-16T06:06:54.377Z,1.25
2023-05-16T06:09:26.000Z,1.20
2023-05-16T06:11:52.615Z,1.08
2023-05-16T06:14:20.288Z,1.08
2023-05-16T06:16:47.017Z,0.75
2023-05-16T06:19:16.215Z,2.78
2023-05-16T06:21:43.687Z,1.33
2023-05-16T06:24:12.309Z,1.27
2023-05-16T06:26:39.581Z,1.80
2023-05-16T06:29:06.279Z,1.88
2023-05-16T06:31:33.198Z,1.00
2023-05-16T06:33:59.931Z,1.52
2023-05-16T06:36:28.815Z,0.95
2023-05-16T06:38:55.689Z,0.95
2023-05-16T06:41:22.264Z,0.77
2023-05-16T06:43:49.539Z,2.22
2023-05-16T06:46:16.354Z,1.95
2023-05-16T06:48:43.108Z,1.20
2023-05-16T06:51:12.936Z,1.77
2023-05-16T06:53:40.040Z,1.30
2023-05-16T06:56:07.242Z,1.33
2023-05-16T06:58:35.215Z,1.23
2023-05-16T07:01:01.873Z,1.15
2023-05-16T07:03:29.140Z,1.27
2023-05-16T07:05:57.297Z,2.10
2023-05-16T07:08:26.009Z,1.17
2023-05-16T07:10:53.750Z,1.73
2023-05-16T07:13:20.765Z,1.08
2023-05-16T07:15:47.486Z,1.13
2023-05-16T07:18:14.352Z,2.10
2023-05-16T07:20:42.087Z,1.85
2023-05-16T07:23:12.211Z,2.05
2023-05-16T07:25:39.382Z,1.15
2023-05-16T07:28:06.045Z,1.15
2023-05-16T07:30:32.780Z,1.17
2023-05-16T07:32:59.479Z,1.58
2023-05-16T07:35:26.433Z,1.65
2023-05-16T07:37:53.516Z,1.75
2023-05-16T07:40:25.813Z,0.85
2023-05-16T07:42:52.568Z,0.90
2023-05-16T07:45:19.516Z,0.70
2023-05-16T07:47:46.415Z,1.05
2023-05-16T07:50:13.300Z,1.08
2023-05-16T07:52:40.023Z,1.40
2023-05-16T07:55:07.511Z,0.90
2023-05-16T07:57:34.568Z,0.93
2023-05-16T08:00:01.598Z,1.08
2023-05-16T08:02:31.282Z,0.90
2023-05-16T08:04:58.322Z,1.48
2023-05-16T08:07:25.082Z,0.80
2023-05-16T08:09:51.787Z,1.40
2023-05-16T08:12:18.607Z,0.73
2023-05-16T08:14:45.267Z,1.38
2023-05-16T08:17:12.184Z,1.52
2023-05-16T08:19:40.126Z,1.13
2023-05-16T08:22:09.290Z,1.60
2023-05-16T08:24:36.326Z,1.15
2023-05-16T08:27:03.046Z,1.25
2023-05-16T08:29:30.299Z,0.93
2023-05-16T08:31:57.145Z,0.75
2023-05-16T08:34:24.254Z,1.83
2023-05-16T08:36:50.977Z,1.42
2023-05-16T08:39:18.844Z,1.23
2023-05-16T08:41:46.630Z,1.13
2023-05-16T08:44:20.429Z,1.98
2023-05-16T08:46:53.100Z,0.98
2023-05-16T08:49:21.072Z,1.25
2023-05-16T08:51:49.415Z,1.52
2023-05-16T08:54:16.967Z,0.95
2023-05-16T08:56:45.178Z,0.70
2023-05-16T09:01:42.530Z,1.27
2023-05-16T09:04:12.584Z,1.35
2023-05-16T09:06:39.326Z,1.15
2023-05-16T09:09:08.343Z,0.82
2023-05-16T09:11:37.048Z,0.77
2023-05-16T09:14:05.889Z,1.55
2023-05-16T09:16:32.784Z,0.77
2023-05-16T09:19:02.137Z,1.33
2023-05-16T09:21:33.272Z,1.55
2023-05-16T09:24:09.622Z,1.70
2023-05-16T09:26:38.499Z,1.38
2023-05-16T09:29:12.561Z,1.65
2023-05-16T09:31:40.764Z,1.13
2023-05-16T09:34:12.280Z,1.17
2023-05-16T09:36:43.498Z,1.02
2023-05-16T09:39:11.354Z,0.60
2023-05-16T09:41:38.103Z,1.23
2023-05-16T09:44:06.517Z,1.10
2023-05-16T09:46:35.001Z,1.65
2023-05-16T09:49:02.325Z,1.38
2023-05-16T09:51:28.999Z,1.08
2023-05-16T09:53:58.848Z,1.48
2023-05-16T09:56:25.577Z,0.85
2023-05-16T09:58:52.689Z,1.42
2023-05-16T10:01:19.635Z,1.30
2023-05-16T10:03:46.698Z,1.13
2023-05-16T10:06:13.841Z,0.80
2023-05-16T10:08:43.313Z,1.40
2023-05-16T10:11:11.022Z,2.28
2023-05-16T10:13:39.267Z,0.98
2023-05-16T10:18:41.736Z,0.77
2023-05-16T10:21:13.630Z,1.40
2023-05-16T10:23:47.581Z,2.05
2023-05-16T10:28:43.006Z,1.63
2023-05-16T10:31:11.763Z,0.90
2023-05-16T10:33:39.838Z,1.02
2023-05-16T10:36:11.184Z,1.35
2023-05-16T10:38:39.266Z,1.23
2023-05-16T10:41:07.923Z,0.98
2023-05-16T10:43:34.628Z,1.40
2023-05-16T10:46:11.103Z,1.40
2023-05-16T10:48:41.996Z,1.10
2023-05-16T10:51:24.006Z,1.30
2023-05-16T10:53:55.428Z,2.05
2023-05-16T10:56:27.153Z,0.88
2023-05-16T10:58:54.818Z,0.98
2023-05-16T11:01:34.930Z,0.52
2023-05-16T11:04:06.659Z,1.38
2023-05-16T11:06:43.343Z,1.73
2023-05-16T11:09:15.783Z,1.42
2023-05-16T11:11:49.388Z,0.85
2023-05-16T11:14:26.364Z,1.08
2023-05-16T11:17:01.217Z,1.30
2023-05-16T11:19:43.082Z,0.77
2023-05-16T11:22:28.373Z,1.02
2023-05-16T11:25:04.385Z,1.48
2023-05-16T11:27:31.198Z,1.20
2023-05-16T11:30:13.717Z,0.85
2023-05-16T11:32:42.894Z,1.25
2023-05-16T11:35:14.990Z,1.33
2023-05-16T11:37:42.544Z,1.02
2023-05-16T11:40:12.590Z,0.70
2023-05-16T11:42:42.478Z,1.45
2023-05-16T11:45:15.848Z,0.85
2023-05-16T11:47:44.802Z,0.55
2023-05-16T11:50:14.203Z,1.02
2023-05-16T11:52:44.410Z,2.17
2023-05-16T11:55:11.533Z,1.13
2023-05-16T11:57:42.383Z,0.93
2023-05-16T12:00:21.321Z,1.48
2023-05-16T12:02:51.526Z,0.90
2023-05-16T12:05:20.797Z,1.27
2023-05-16T12:07:47.962Z,0.82
2023-05-16T12:10:16.145Z,0.80
2023-05-16T12:15:12.568Z,1.20
2023-05-16T12:17:41.581Z,0.95
2023-05-16T12:20:16.771Z,1.45
2023-05-16T12:22:45.389Z,1.10
2023-05-16T12:25:28.462Z,1.13
2023-05-16T12:27:57.478Z,1.00
2023-05-16T12:30:25.674Z,1.40
2023-05-16T12:32:55.926Z,1.45
2023-05-16T12:35:23.204Z,1.08
2023-05-16T12:37:52.026Z,1.05
2023-05-16T12:40:20.654Z,1.73
2023-05-16T12:42:52.243Z,1.17
2023-05-16T12:45:19.065Z,1.00
2023-05-16T12:47:47.174Z,0.98
2023-05-16T12:50:17.480Z,0.73
2023-05-16T12:52:49.493Z,1.10
2023-05-16T12:55:20.635Z,1.10
2023-05-16T12:57:48.469Z,0.98
2023-05-16T13:00:18.807Z,1.08
2023-05-16T13:02:46.649Z,1.30
2023-05-16T13:05:13.620Z,1.42
2023-05-16T13:07:40.995Z,1.60
2023-05-16T13:10:10.818Z,1.27
2023-05-16T13:12:41.487Z,0.73
2023-05-16T13:15:10.782Z,1.38
2023-05-16T13:17:39.312Z,1.65
2023-05-16T13:20:10.467Z,1.52
2023-05-16T13:22:37.356Z,1.55
2023-05-16T13:25:04.824Z,0.80
2023-05-16T13:27:32.316Z,1.15
2023-05-16T13:29:59.632Z,0.65
2023-05-16T13:32:26.857Z,1.42
2023-05-16T13:34:54.585Z,1.02
2023-05-16T13:37:21.445Z,1.77
2023-05-16T13:39:48.164Z,0.93
2023-05-16T13:42:16.149Z,1.00
2023-05-16T13:44:43.395Z,1.08
2023-05-16T13:47:10.063Z,2.45
2023-05-16T13:49:37.855Z,1.55
2023-05-16T13:54:32.135Z,1.17
2023-05-16T13:56:59.018Z,1.15
2023-05-16T13:59:44.904Z,1.20
2023-05-16T14:02:12.675Z,1.48
2023-05-16T14:04:40.073Z,1.52
2023-05-16T14:07:07.268Z,1.20
2023-05-16T14:09:35.293Z,1.63
2023-05-16T14:12:05.152Z,0.70
2023-05-16T14:14:32.077Z,1.05
2023-05-16T14:16:59.623Z,0.77
2023-05-16T14:19:26.494Z,0.77
2023-05-16T14:21:53.552Z,1.60
2023-05-16T14:24:20.268Z,0.80
2023-05-16T14:26:46.991Z,0.90
2023-05-16T14:29:13.723Z,0.82
2023-05-16T14:31:41.039Z,0.77
2023-05-16T14:34:08.164Z,1.60
2023-05-16T14:36:35.286Z,0.50
2023-05-16T14:39:02.376Z,0.50
2023-05-16T14:41:29.028Z,1.20
2023-05-16T14:43:56.216Z,0.82
2023-05-16T14:46:22.965Z,1.38
2023-05-16T14:48:51.161Z,1.05
2023-05-16T14:51:18.010Z,0.95
2023-05-16T14:53:46.967Z,0.80
2023-05-16T14:56:13.992Z,0.77
2023-05-16T14:58:40.743Z,0.57
2023-05-16T15:01:08.447Z,0.95
2023-05-16T15:03:53.840Z,0.98
2023-05-16T15:06:22.502Z,0.95
2023-05-16T15:08:50.865Z,1.67
2023-05-16T15:11:17.785Z,0.60
2023-05-16T15:13:44.495Z,0.65
2023-05-16T15:16:11.428Z,0.95
2023-05-16T15:18:38.309Z,0.85
2023-05-16T15:21:05.028Z,1.38
2023-05-16T15:23:31.886Z,0.93
2023-05-16T15:25:58.603Z,0.95
2023-05-16T15:28:25.496Z,1.02
2023-05-16T15:30:52.348Z,0.88
2023-05-16T15:33:19.019Z,1.33
2023-05-16T15:35:46.239Z,0.85
2023-05-16T15:38:12.985Z,0.60
2023-05-16T15:40:39.688Z,1.10
2023-05-16T15:43:06.535Z,0.88
2023-05-16T15:45:33.862Z,1.60
2023-05-16T15:48:00.928Z,0.60
2023-05-16T15:50:27.709Z,2.42
2023-05-16T15:52:54.410Z,0.80
2023-05-16T15:55:22.071Z,0.45
2023-05-16T15:57:48.780Z,0.47
2023-05-16T16:00:16.063Z,0.70
2023-05-16T16:02:45.166Z,1.13
2023-05-16T16:05:14.005Z,1.33
2023-05-16T16:07:40.717Z,0.93
2023-05-16T16:10:08.214Z,0.88
2023-05-16T16:12:35.203Z,0.98
2023-05-16T16:15:02.558Z,0.82
2023-05-16T16:17:29.417Z,0.57
2023-05-16T16:19:57.103Z,1.33
2023-05-16T16:22:23.902Z,2.08
2023-05-16T16:24:50.719Z,1.05
2023-05-16T16:27:17.433Z,0.80
2023-05-16T16:29:44.128Z,1.10
2023-05-16T16:32:10.949Z,0.68
2023-05-16T16:34:39.858Z,1.02
2023-05-16T16:37:10.481Z,1.00
2023-05-16T16:39:37.371Z,0.60
2023-05-16T16:42:04.265Z,1.13
2023-05-16T16:44:31.104Z,1.58
2023-05-16T16:46:57.840Z,1.42
2023-05-16T16:49:24.841Z,0.73
2023-05-16T16:51:51.929Z,1.67
2023-05-16T16:54:18.967Z,0.93
2023-05-16T16:56:47.586Z,1.27
2023-05-16T16:59:14.610Z,1.10
2023-05-16T17:01:41.759Z,1.92
2023-05-16T17:04:09.039Z,0.80
2023-05-16T17:06:36.112Z,0.93
2023-05-16T17:09:05.199Z,0.77
2023-05-16T17:11:36.034Z,1.33
2023-05-16T17:14:05.886Z,1.55
2023-05-16T17:16:34.062Z,0.95
2023-05-16T17:19:01.697Z,1.17
2023-05-16T17:21:29.577Z,0.90
2023-05-16T17:23:58.295Z,0.80
2023-05-16T17:26:25.203Z,0.50
2023-05-16T17:28:53.333Z,0.60
2023-05-16T17:31:20.446Z,0.93
2023-05-16T17:33:47.158Z,0.90
2023-05-16T17:36:14.163Z,0.85
2023-05-16T17:38:41.237Z,0.93
2023-05-16T17:41:08.608Z,0.82
2023-05-16T17:43:35.527Z,0.85
2023-05-16T17:46:02.378Z,1.27
2023-05-16T17:48:30.700Z,0.70
2023-05-16T17:50:57.570Z,1.15
2023-05-16T17:53:25.204Z,0.77
2023-05-16T17:55:52.112Z,0.73
2023-05-16T17:58:19.004Z,1.33
2023-05-16T18:00:49.067Z,1.17
2023-05-16T18:03:15.983Z,0.60
2023-05-16T18:08:12.962Z,1.38
2023-05-16T18:10:50.532Z,1.65
2023-05-16T18:13:18.789Z,1.20
2023-05-16T18:15:45.860Z,1.30
2023-05-16T18:18:12.961Z,2.42
2023-05-16T18:20:40.891Z,1.15
2023-05-16T18:23:10.647Z,0.65
2023-05-16T18:25:38.755Z,1.75
2023-05-16T18:28:05.757Z,1.08
2023-05-16T18:30:32.888Z,1.20
2023-05-16T18:33:00.097Z,0.95
2023-05-16T18:35:28.691Z,1.20
2023-05-16T18:37:55.891Z,1.10
2023-05-16T18:40:22.928Z,1.05
2023-05-16T18:42:49.886Z,1.30
2023-05-16T18:45:17.056Z,0.63
2023-05-16T18:47:44.395Z,0.70
2023-05-16T18:50:11.735Z,0.80
2023-05-16T18:52:40.660Z,1.15
2023-05-16T18:55:09.652Z,1.35
2023-05-16T18:57:36.563Z,0.95
2023-05-16T19:00:04.470Z,0.80
2023-05-16T19:02:41.423Z,0.98
2023-05-16T19:05:10.519Z,1.27
2023-05-16T19:07:38.717Z,1.58
2023-05-16T19:10:06.390Z,1.23
2023-05-16T19:12:33.490Z,1.23
2023-05-16T19:15:00.625Z,0.82
2023-05-16T19:17:27.499Z,1.02
2023-05-16T19:19:54.261Z,1.08
2023-05-16T19:22:21.083Z,2.33
2023-05-16T19:24:48.051Z,1.70
2023-05-16T19:27:14.883Z,1.42
2023-05-16T19:29:41.798Z,1.40
2023-05-16T19:32:08.702Z,1.65
2023-05-16T19:34:35.826Z,0.90
2023-05-16T19:37:03.545Z,1.17
2023-05-16T19:39:32.222Z,2.03
2023-05-16T19:42:07.069Z,1.98
2023-05-16T19:44:35.114Z,3.63
2023-05-16T19:47:02.265Z,1.73
2023-05-16T19:49:31.793Z,2.42
2023-05-16T19:51:59.506Z,1.58
2023-05-16T19:54:26.408Z,2.13
2023-05-16T19:56:54.144Z,1.80
2023-05-16T19:59:22.595Z,1.58
2023-05-16T20:04:16.099Z,1.92
2023-05-16T20:06:42.820Z,2.00
2023-05-16T20:09:11.290Z,1.45
2023-05-16T20:14:06.701Z,2.20
2023-05-16T20:16:33.415Z,1.60
2023-05-16T20:19:00.325Z,2.70
2023-05-16T20:21:27.044Z,2.30
2023-05-16T20:23:54.697Z,3.08
2023-05-16T20:26:21.524Z,2.22
2023-05-16T20:28:48.158Z,2.72
2023-05-16T20:31:14.901Z,2.80
2023-05-16T20:33:41.596Z,2.35
2023-05-16T20:36:09.535Z,3.85
2023-05-16T20:38:36.244Z,3.13
2023-05-16T20:41:04.681Z,3.17
2023-05-16T20:45:58.452Z,3.45
2023-05-16T20:48:25.331Z,2.15
2023-05-16T20:50:52.203Z,2.13
2023-05-16T20:53:18.938Z,2.97
2023-05-16T20:55:46.021Z,3.85
2023-05-16T20:58:12.728Z,2.97
2023-05-16T21:00:45.619Z,2.90
2023-05-16T21:03:12.598Z,4.72
2023-05-16T21:05:42.284Z,3.65
2023-05-16T21:08:11.764Z,5.63
2023-05-16T21:10:48.076Z,2.40
2023-05-16T21:13:14.968Z,3.95
2023-05-16T21:15:42.786Z,3.10
2023-05-16T21:18:10.496Z,4.35
2023-05-16T21:20:37.251Z,3.17
2023-05-16T21:23:04.929Z,3.80
2023-05-16T21:25:36.352Z,3.42
2023-05-16T21:28:03.718Z,3.08
2023-05-16T21:30:31.618Z,4.10
2023-05-16T21:32:58.395Z,2.85
2023-05-16T21:35:25.404Z,2.38
2023-05-16T21:37:52.125Z,2.50
2023-05-16T21:40:24.836Z,4.55
2023-05-16T21:42:54.994Z,4.32
2023-05-16T21:45:23.506Z,3.53
2023-05-16T21:47:58.779Z,2.88
2023-05-16T21:50:25.642Z,5.13
2023-05-16T21:52:52.325Z,2.00
2023-05-16T21:55:18.972Z,1.73
2023-05-16T21:57:45.627Z,3.70
2023-05-16T22:00:12.990Z,2.00
2023-05-16T22:02:39.829Z,3.67
2023-05-16T22:05:07.605Z,2.25
2023-05-16T22:07:35.318Z,3.17
2023-05-16T22:10:03.160Z,4.72
2023-05-16T22:12:30.006Z,4.13
2023-05-16T22:14:57.366Z,2.50
2023-05-16T22:17:24.057Z,3.28
2023-05-16T22:19:50.834Z,4.18
2023-05-16T22:22:17.729Z,1.83
2023-05-16T22:24:44.466Z,4.05
2023-05-16T22:27:12.817Z,2.65
2023-05-16T22:29:41.642Z,2.67
2023-05-16T22:32:12.462Z,3.17
2023-05-16T22:34:39.817Z,3.97
2023-05-16T22:37:08.124Z,2.80
2023-05-16T22:39:35.156Z,2.38
2023-05-16T22:42:02.059Z,2.03
2023-05-16T22:44:31.323Z,3.40
2023-05-16T22:46:59.195Z,1.95
2023-05-16T22:49:25.881Z,2.00
2023-05-16T22:51:52.721Z,3.20
2023-05-16T22:54:20.389Z,3.20
2023-05-16T22:56:47.240Z,3.45
2023-05-16T22:59:14.840Z,3.00
2023-05-16T23:01:41.514Z,3.80
2023-05-16T23:04:08.579Z,2.83
2023-05-16T23:06:36.643Z,3.80
2023-05-16T23:09:04.763Z,3.42
2023-05-16T23:11:32.256Z,3.28
2023-05-16T23:13:58.903Z,3.97
2023-05-16T23:16:25.880Z,2.90
2023-05-16T23:18:52.826Z,2.75
2023-05-16T23:21:19.560Z,3.42
2023-05-16T23:23:47.305Z,2.67
2023-05-16T23:26:14.892Z,2.35
2023-05-16T23:28:41.576Z,3.15
2023-05-16T23:31:08.373Z,3.20
2023-05-16T23:33:35.076Z,1.92
2023-05-16T23:36:06.387Z,2.67
2023-05-16T23:38:33.059Z,3.30
2023-05-16T23:40:59.705Z,1.90
2023-05-16T23:43:26.759Z,2.97
2023-05-16T23:45:53.397Z,3.22
2023-05-16T23:48:20.114Z,3.63
2023-05-16T23:50:46.953Z,2.17
2023-05-16T23:53:13.849Z,2.33
2023-05-16T23:55:40.498Z,3.60
2023-05-16T23:58:07.461Z,2.25
